地図

経路データ

SID SEASON NUMBER BASIN SUBBASIN NAME ISO_TIME NATURE LAT LON WMO_WIND WMO_PRES WMO_AGENCY TRACK_TYPE DIST2LAND LANDFALL IFLAG USA_AGENCY USA_ATCF_ID USA_LAT USA_LON USA_RECORD USA_STATUS USA_WIND USA_PRES USA_SSHS USA_R34_NE USA_R34_SE USA_R34_SW USA_R34_NW USA_R50_NE USA_R50_SE USA_R50_SW USA_R50_NW USA_R64_NE USA_R64_SE USA_R64_SW USA_R64_NW USA_POCI USA_ROCI USA_RMW USA_EYE TOKYO_LAT TOKYO_LON TOKYO_GRADE TOKYO_WIND TOKYO_PRES TOKYO_R50_DIR TOKYO_R50_LONG TOKYO_R50_SHORT TOKYO_R30_DIR TOKYO_R30_LONG TOKYO_R30_SHORT TOKYO_LAND CMA_LAT CMA_LON CMA_CAT CMA_WIND CMA_PRES HKO_LAT HKO_LON HKO_CAT HKO_WIND HKO_PRES NEWDELHI_LAT NEWDELHI_LON NEWDELHI_GRADE NEWDELHI_WIND NEWDELHI_PRES NEWDELHI_CI NEWDELHI_DP NEWDELHI_POCI REUNION_LAT REUNION_LON REUNION_TYPE REUNION_WIND REUNION_PRES REUNION_TNUM REUNION_CI REUNION_RMW REUNION_R34_NE REUNION_R34_SE REUNION_R34_SW REUNION_R34_NW REUNION_R50_NE REUNION_R50_SE REUNION_R50_SW REUNION_R50_NW REUNION_R64_NE REUNION_R64_SE REUNION_R64_SW REUNION_R64_NW BOM_LAT BOM_LON BOM_TYPE BOM_WIND BOM_PRES BOM_TNUM BOM_CI BOM_RMW BOM_R34_NE BOM_R34_SE BOM_R34_SW BOM_R34_NW BOM_R50_NE BOM_R50_SE BOM_R50_SW BOM_R50_NW BOM_R64_NE BOM_R64_SE BOM_R64_SW BOM_R64_NW BOM_ROCI BOM_POCI BOM_EYE BOM_POS_METHOD BOM_PRES_METHOD NADI_LAT NADI_LON NADI_CAT NADI_WIND NADI_PRES WELLINGTON_LAT WELLINGTON_LON WELLINGTON_WIND WELLINGTON_PRES DS824_LAT DS824_LON DS824_STAGE DS824_WIND DS824_PRES TD9636_LAT TD9636_LON TD9636_STAGE TD9636_WIND TD9636_PRES TD9635_LAT TD9635_LON TD9635_WIND TD9635_PRES TD9635_ROCI NEUMANN_LAT NEUMANN_LON NEUMANN_CLASS NEUMANN_WIND NEUMANN_PRES MLC_LAT MLC_LON MLC_CLASS MLC_WIND MLC_PRES USA_GUST BOM_GUST BOM_GUST_PER REUNION_GUST REUNION_GUST_PER USA_SEAHGT USA_SEARAD_NE USA_SEARAD_SE USA_SEARAD_SW USA_SEARAD_NW STORM_SPEED STORM_DIR
1872032S12085 1872 3 SI MM NOT_NAMED 1872-02-01 06:00:00 NR -12.3000 85.3000 main 1913 1913 _____O________ -1 -12.3000 85.3000 99 9.90000 2 257
1872032S12085 1872 3 SI MM NOT_NAMED 1872-02-01 09:00:00 NR -12.3242 85.1872 main 1921 1921 _____P________ -1 -12.3242 85.1872 99 2 258
1872032S12085 1872 3 SI MM NOT_NAMED 1872-02-01 12:00:00 NR -12.3498 85.0650 main 1930 1930 _____P________ -1 -12.3498 85.0650 99 3 258
1872032S12085 1872 3 SI MM NOT_NAMED 1872-02-01 15:00:00 NR -12.3778 84.9238 main 1954 1954 _____P________ -1 -12.3778 84.9238 99 3 259
1872032S12085 1872 3 SI MM NOT_NAMED 1872-02-01 18:00:00 NR -12.4097 84.7541 main 1963 1963 _____P________ -1 -12.4097 84.7541 99 4 259
1872032S12085 1872 3 SI MM NOT_NAMED 1872-02-01 21:00:00 NR -12.4467 84.5465 main 1989 1989 _____P________ -1 -12.4467 84.5465 99 5 260
1872032S12085 1872 3 SI MM NOT_NAMED 1872-02-02 00:00:00 NR -12.4900 84.2913 main 2013 2013 _____P________ -1 -12.4900 84.2913 99 6 260
1872032S12085 1872 3 SI MM NOT_NAMED 1872-02-02 03:00:00 NR -12.5408 83.9790 main 2040 2040 _____P________ -1 -12.5408 83.9790 99 7 261
1872032S12085 1872 3 SI MM NOT_NAMED 1872-02-02 06:00:00 NR -12.6000 83.6000 main 2082 2082 _____O________ -1 -12.6000 83.6000 99 9.90000 8 261
1872032S12085 1872 3 SI MM NOT_NAMED 1872-02-02 09:00:00 NR -12.6683 83.1485 main 2102 2096 _____P________ -1 -12.6683 83.1485 99 10 261
1872032S12085 1872 3 SI MM NOT_NAMED 1872-02-02 12:00:00 NR -12.7447 82.6343 main 2095 2095 _____P________ -1 -12.7447 82.6343 99 11 261
1872032S12085 1872 3 SI MM NOT_NAMED 1872-02-02 15:00:00 NR -12.8278 82.0711 main 2101 2100 _____P________ -1 -12.8278 82.0711 99 11 261
1872032S12085 1872 3 SI MM NOT_NAMED 1872-02-02 18:00:00 NR -12.9161 81.4725 main 2108 2107 _____P________ -1 -12.9161 81.4725 99 12 261
1872032S12085 1872 3 SI MM NOT_NAMED 1872-02-02 21:00:00 NR -13.0085 80.8523 main 2117 2117 _____P________ -1 -13.0085 80.8523 99 12 261
1872032S12085 1872 3 SI MM NOT_NAMED 1872-02-03 00:00:00 NR -13.1039 80.2244 main 2129 2129 _____P________ -1 -13.1039 80.2244 99 12 261
1872032S12085 1872 3 SI MM NOT_NAMED 1872-02-03 03:00:00 NR -13.2014 79.6023 main 2142 2142 _____P________ -1 -13.2014 79.6023 99 12 261
1872032S12085 1872 3 SI MM NOT_NAMED 1872-02-03 06:00:00 NR -13.3000 79.0000 reunion main 2158 2158 _____O________ -1 -13.3000 79.0000 99 9.90000 11 260
1872032S12085 1872 3 SI MM NOT_NAMED 1872-02-03 09:00:00 NR -13.3943 78.4663 main 2174 2174 _____P________ -1 -13.3943 78.4663 99 10 259
1872032S12085 1872 3 SI MM NOT_NAMED 1872-02-03 12:00:00 NR -13.4910 77.9446 main 2193 2193 _____P________ -1 -13.4910 77.9446 99 10 259
1872032S12085 1872 3 SI MM NOT_NAMED 1872-02-03 15:00:00 NR -13.5898 77.4337 main 2213 2169 _____P________ -1 -13.5898 77.4337 99 10 259
1872032S12085 1872 3 SI MM NOT_NAMED 1872-02-03 18:00:00 NR -13.6903 76.9323 main 2159 2115 _____P________ -1 -13.6903 76.9323 99 10 258
1872032S12085 1872 3 SI MM NOT_NAMED 1872-02-03 21:00:00 NR -13.7920 76.4394 main 2105 2061 _____P________ -1 -13.7920 76.4394 99 10 258
1872032S12085 1872 3 SI MM NOT_NAMED 1872-02-04 00:00:00 NR -13.8944 75.9538 main 2061 2007 _____P________ -1 -13.8944 75.9538 99 10 258
1872032S12085 1872 3 SI MM NOT_NAMED 1872-02-04 03:00:00 NR -13.9973 75.4744 main 2007 1953 _____P________ -1 -13.9973 75.4744 99 9 257
1872032S12085 1872 3 SI MM NOT_NAMED 1872-02-04 06:00:00 NR -14.1000 75.0000 reunion main 1953 1899 _____O________ -1 -14.1000 75.0000 99 9.90000 10 258
1872032S12085 1872 3 SI MM NOT_NAMED 1872-02-04 09:00:00 NR -14.1974 74.5157 main 1899 1855 _____P________ -1 -14.1974 74.5157 99 10 258
1872032S12085 1872 3 SI MM NOT_NAMED 1872-02-04 12:00:00 NR -14.2949 74.0368 main 1845 1801 _____P________ -1 -14.2949 74.0368 99 9 258
1872032S12085 1872 3 SI MM NOT_NAMED 1872-02-04 15:00:00 NR -14.3927 73.5638 main 1801 1747 _____P________ -1 -14.3927 73.5638 99 9 258
1872032S12085 1872 3 SI MM NOT_NAMED 1872-02-04 18:00:00 NR -14.4912 73.0970 main 1747 1703 _____P________ -1 -14.4912 73.0970 99 9 258
1872032S12085 1872 3 SI MM NOT_NAMED 1872-02-04 21:00:00 NR -14.5908 72.6368 main 1693 1649 _____P________ -1 -14.5908 72.6368 99 9 257
1872032S12085 1872 3 SI MM NOT_NAMED 1872-02-05 00:00:00 NR -14.6919 72.1836 main 1649 1606 _____P________ -1 -14.6919 72.1836 99 9 257
1872032S12085 1872 3 SI MM NOT_NAMED 1872-02-05 03:00:00 NR -14.7948 71.7379 main 1596 1552 _____P________ -1 -14.7948 71.7379 99 9 256
1872032S12085 1872 3 SI MM NOT_NAMED 1872-02-05 06:00:00 NR -14.9000 71.3000 reunion main 1552 1508 _____O________ -1 -14.9000 71.3000 99 9.90000 8 256
1872032S12085 1872 3 SI MM NOT_NAMED 1872-02-05 09:00:00 NR -15.0007 70.8892 main 1508 1465 _____P________ -1 -15.0007 70.8892 99 8 255
1872032S12085 1872 3 SI MM NOT_NAMED 1872-02-05 12:00:00 NR -15.1030 70.4895 main 1465 1421 _____P________ -1 -15.1030 70.4895 99 8 255
1872032S12085 1872 3 SI MM NOT_NAMED 1872-02-05 15:00:00 NR -15.2078 70.0951 main 1421 1378 _____P________ -1 -15.2078 70.0951 99 8 254
1872032S12085 1872 3 SI MM NOT_NAMED 1872-02-05 18:00:00 NR -15.3161 69.7003 main 1378 1334 _____P________ -1 -15.3161 69.7003 99 8 254
1872032S12085 1872 3 SI MM NOT_NAMED 1872-02-05 21:00:00 NR -15.4287 69.2992 main 1334 1291 _____P________ -1 -15.4287 69.2992 99 8 254
1872032S12085 1872 3 SI MM NOT_NAMED 1872-02-06 00:00:00 NR -15.5464 68.8860 main 1291 1242 _____P________ -1 -15.5464 68.8860 99 8 253
1872032S12085 1872 3 SI MM NOT_NAMED 1872-02-06 03:00:00 NR -15.6699 68.4549 main 1242 1189 _____P________ -1 -15.6699 68.4549 99 9 253
1872032S12085 1872 3 SI MM NOT_NAMED 1872-02-06 06:00:00 NR -15.8000 68.0000 reunion main 1189 1137 _____O________ -1 -15.8000 68.0000 99 9.90000 10 254
1872032S12085 1872 3 SI MM NOT_NAMED 1872-02-06 09:00:00 NR -15.9303 67.5027 main 1137 1079 _____P________ -1 -15.9303 67.5027 99 10 255
1872032S12085 1872 3 SI MM NOT_NAMED 1872-02-06 12:00:00 NR -16.0663 66.9823 main 1079 1026 _____P________ -1 -16.0663 66.9823 99 11 255
1872032S12085 1872 3 SI MM NOT_NAMED 1872-02-06 15:00:00 NR -16.2078 66.4429 main 1017 964 _____P________ -1 -16.2078 66.4429 99 11 255
1872032S12085 1872 3 SI MM NOT_NAMED 1872-02-06 18:00:00 NR -16.3549 65.8885 main 959 907 _____P________ -1 -16.3549 65.8885 99 11 254
1872032S12085 1872 3 SI MM NOT_NAMED 1872-02-06 21:00:00 NR -16.5076 65.3230 main 897 840 _____P________ -1 -16.5076 65.3230 99 11 254
1872032S12085 1872 3 SI MM NOT_NAMED 1872-02-07 00:00:00 NR -16.6659 64.7504 main 840 778 _____P________ -1 -16.6659 64.7504 99 11 254
1872032S12085 1872 3 SI MM NOT_NAMED 1872-02-07 03:00:00 NR -16.8300 64.1748 main 778 712 _____P________ -1 -16.8300 64.1748 99 12 253
1872032S12085 1872 3 SI MM NOT_NAMED 1872-02-07 06:00:00 NR -17.0000 63.6000 reunion main 712 654 _____O________ -1 -17.0000 63.6000 99 9.90000 12 253
1872032S12085 1872 3 SI MM NOT_NAMED 1872-02-07 09:00:00 NR -17.1732 63.0269 main 645 594 _____P________ -1 -17.1732 63.0269 99 12 252
1872032S12085 1872 3 SI MM NOT_NAMED 1872-02-07 12:00:00 NR -17.3530 62.4498 main 579 529 _____P________ -1 -17.3530 62.4498 99 12 252
1872032S12085 1872 3 SI MM NOT_NAMED 1872-02-07 15:00:00 NR -17.5380 61.8722 main 529 464 _____P________ -1 -17.5380 61.8722 99 12 251
1872032S12085 1872 3 SI MM NOT_NAMED 1872-02-07 18:00:00 NR -17.7271 61.2976 main 464 408 _____P________ -1 -17.7271 61.2976 99 12 251
1872032S12085 1872 3 SI MM NOT_NAMED 1872-02-07 21:00:00 NR -17.9191 60.7295 main 400 345 _____P________ -1 -17.9191 60.7295 99 11 250
1872032S12085 1872 3 SI MM NOT_NAMED 1872-02-08 00:00:00 NR -18.1126 60.1714 main 345 290 _____P________ -1 -18.1126 60.1714 99 11 250
1872032S12085 1872 3 SI MM NOT_NAMED 1872-02-08 03:00:00 NR -18.3066 59.6270 main 283 231 _____P________ -1 -18.3066 59.6270 99 11 249
1872032S12085 1872 3 SI MM NOT_NAMED 1872-02-08 06:00:00 NR -18.5000 59.1000 reunion main 231 182 _____O________ -1 -18.5000 59.1000 99 9.90000 11 249
1872032S12085 1872 3 SI MM NOT_NAMED 1872-02-08 09:00:00 NR -18.6925 58.5697 main 182 140 _____P________ -1 -18.6925 58.5697 99 11 249
1872032S12085 1872 3 SI MM NOT_NAMED 1872-02-08 12:00:00 NR -18.8861 58.0528 main 140 111 _____P________ -1 -18.8861 58.0528 99 10 248
1872032S12085 1872 3 SI MM NOT_NAMED 1872-02-08 15:00:00 NR -19.0796 57.5520 main 111 98 _____P________ -1 -19.0796 57.5520 99 10 247
1872032S12085 1872 3 SI MM NOT_NAMED 1872-02-08 18:00:00 NR -19.2716 57.0706 main 98 98 _____P________ -1 -19.2716 57.0706 99 10 247
1872032S12085 1872 3 SI MM NOT_NAMED 1872-02-08 21:00:00 NR -19.4609 56.6115 main 115 115 _____P________ -1 -19.4609 56.6115 99 9 246
1872032S12085 1872 3 SI MM NOT_NAMED 1872-02-09 00:00:00 NR -19.6462 56.1780 main 147 134 _____P________ -1 -19.6462 56.1780 99 9 245
1872032S12085 1872 3 SI MM NOT_NAMED 1872-02-09 03:00:00 NR -19.8263 55.7731 main 134 111 _____P________ -1 -19.8263 55.7731 99 8 244
1872032S12085 1872 3 SI MM NOT_NAMED 1872-02-09 06:00:00 NR -20.0000 55.4000 reunion main 111 100 _____O________ -1 -20.0000 55.4000 99 9.90000 7 244
1872032S12085 1872 3 SI MM NOT_NAMED 1872-02-09 09:00:00 NR -20.1528 55.0598 main 91 88 _____P________ -1 -20.1528 55.0598 99 7 244
1872032S12085 1872 3 SI MM NOT_NAMED 1872-02-09 12:00:00 NR -20.2986 54.7535 main 93 93 _____P________ -1 -20.2986 54.7535 99 6 242
1872032S12085 1872 3 SI MM NOT_NAMED 1872-02-09 15:00:00 NR -20.4405 54.4753 main 106 106 _____P________ -1 -20.4405 54.4753 99 6 240
1872032S12085 1872 3 SI MM NOT_NAMED 1872-02-09 18:00:00 NR -20.5817 54.2193 main 117 117 _____P________ -1 -20.5817 54.2193 99 5 239
1872032S12085 1872 3 SI MM NOT_NAMED 1872-02-09 21:00:00 NR -20.7252 53.9797 main 132 132 _____P________ -1 -20.7252 53.9797 99 5 236
1872032S12085 1872 3 SI MM NOT_NAMED 1872-02-10 00:00:00 NR -20.8742 53.7506 main 147 147 _____P________ -1 -20.8742 53.7506 99 5 234
1872032S12085 1872 3 SI MM NOT_NAMED 1872-02-10 03:00:00 NR -21.0314 53.5260 main 176 176 _____P________ -1 -21.0314 53.5260 99 5 232
1872032S12085 1872 3 SI MM NOT_NAMED 1872-02-10 06:00:00 NR -21.2000 53.3000 reunion main 197 197 _____O________ -1 -21.2000 53.3000 99 9.90000 6 234
1872032S12085 1872 3 SI MM NOT_NAMED 1872-02-10 09:00:00 NR -21.3624 53.0333 main 230 230 _____P________ -1 -21.3624 53.0333 99 6 236
1872032S12085 1872 3 SI MM NOT_NAMED 1872-02-10 12:00:00 NR -21.5322 52.7674 main 252 252 _____P________ -1 -21.5322 52.7674 99 6 235
1872032S12085 1872 3 SI MM NOT_NAMED 1872-02-10 15:00:00 NR -21.7128 52.5042 main 287 287 _____P________ -1 -21.7128 52.5042 99 6 232
1872032S12085 1872 3 SI MM NOT_NAMED 1872-02-10 18:00:00 NR -21.9077 52.2459 main 322 322 _____P________ -1 -21.9077 52.2459 99 6 229
1872032S12085 1872 3 SI MM NOT_NAMED 1872-02-10 21:00:00 NR -22.1203 51.9943 main 349 349 _____P________ -1 -22.1203 51.9943 99 6 226
1872032S12085 1872 3 SI MM NOT_NAMED 1872-02-11 00:00:00 NR -22.3542 51.7515 main 376 351 _____P________ -1 -22.3542 51.7515 99 7 222
1872032S12085 1872 3 SI MM NOT_NAMED 1872-02-11 03:00:00 NR -22.6129 51.5194 main 351 341 _____P________ -1 -22.6129 51.5194 99 7 217
1872032S12085 1872 3 SI MM NOT_NAMED 1872-02-11 06:00:00 NR -22.9000 51.3000 reunion main 341 322 _____O________ -1 -22.9000 51.3000 99 9.90000 7 225
1872032S12085 1872 3 SI MM NOT_NAMED 1872-02-11 09:00:00 NR -23.1174 50.9810 main 322 299 _____P________ -1 -23.1174 50.9810 99 7 233
1872032S12085 1872 3 SI MM NOT_NAMED 1872-02-11 12:00:00 NR -23.3511 50.6606 main 301 273 _____P________ -1 -23.3511 50.6606 99 8 229
1872032S12085 1872 3 SI MM NOT_NAMED 1872-02-11 15:00:00 NR -23.6170 50.3599 main 276 250 _____P________ -1 -23.6170 50.3599 99 8 221
1872032S12085 1872 3 SI MM NOT_NAMED 1872-02-11 18:00:00 NR -23.9313 50.1001 main 250 240 _____P________ -1 -23.9313 50.1001 99 8 211
1872032S12085 1872 3 SI MM NOT_NAMED 1872-02-11 21:00:00 NR -24.3102 49.9024 main 245 239 _____P________ -1 -24.3102 49.9024 99 9 199
1872032S12085 1872 3 SI MM NOT_NAMED 1872-02-12 00:00:00 NR -24.7701 49.7882 main 249 249 _____P________ -1 -24.7701 49.7882 99 10 186
1872032S12085 1872 3 SI MM NOT_NAMED 1872-02-12 03:00:00 NR -25.3279 49.7797 main 267 267 _____P________ -1 -25.3279 49.7797 99 12 175
1872032S12085 1872 3 SI MM NOT_NAMED 1872-02-12 06:00:00 NR -26.0000 49.9000 reunion main 302 302 _____O________ -1 -26.0000 49.9000 99 9.90000 17 165
1872032S12085 1872 3 SI MM NOT_NAMED 1872-02-12 09:00:00 NR -26.9735 50.2782 main 389 389 _____P________ -1 -26.9735 50.2782 99 22 159
1872032S12085 1872 3 SI MM NOT_NAMED 1872-02-12 12:00:00 NR -28.0834 50.8067 main 504 504 _____P________ -1 -28.0834 50.8067 99 25 156
1872032S12085 1872 3 SI MM NOT_NAMED 1872-02-12 15:00:00 NR -29.2761 51.4526 main 646 646 _____P________ -1 -29.2761 51.4526 99 27 154
1872032S12085 1872 3 SI MM NOT_NAMED 1872-02-12 18:00:00 NR -30.4972 52.1810 main 790 790 _____P________ -1 -30.4972 52.1810 99 27 152
1872032S12085 1872 3 SI MM NOT_NAMED 1872-02-12 21:00:00 NR -31.6925 52.9536 main 941 941 _____P________ -1 -31.6925 52.9536 99 27 150
1872032S12085 1872 3 SI MM NOT_NAMED 1872-02-13 00:00:00 NR -32.8089 53.7286 main 1077 1077 _____P________ -1 -32.8089 53.7286 99 25 149
1872032S12085 1872 3 SI MM NOT_NAMED 1872-02-13 03:00:00 NR -33.7946 54.4603 main 1211 1211 _____P________ -1 -33.7946 54.4603 99 21 148
1872032S12085 1872 3 SI MM NOT_NAMED 1872-02-13 06:00:00 NR -34.6000 55.1000 reunion main 1315 1315 _____O________ -1 -34.6000 55.1000 99 9.90000 17 146
1872032S12085 1872 3 SI MM NOT_NAMED 1872-02-13 09:00:00 NR -35.1900 55.6075 main 1395 1395 _____P________ -1 -35.1900 55.6075 99 12 144
1872032S12085 1872 3 SI MM NOT_NAMED 1872-02-13 12:00:00 NR -35.5822 55.9855 main 1453 1453 _____P________ -1 -35.5822 55.9855 99 8 140
1872032S12085 1872 3 SI MM NOT_NAMED 1872-02-13 15:00:00 NR -35.8065 56.2495 main 1481 1481 _____P________ -1 -35.8065 56.2495 99 5 132
1872032S12085 1872 3 SI MM NOT_NAMED 1872-02-13 18:00:00 NR -35.8917 56.4169 main 1501 1501 _____P________ -1 -35.8917 56.4169 99 2 106
1872032S12085 1872 3 SI MM NOT_NAMED 1872-02-13 21:00:00 NR -35.8659 56.5062 main 1507 1498 _____P________ -1 -35.8659 56.5062 99 2 37
1872032S12085 1872 3 SI MM NOT_NAMED 1872-02-14 00:00:00 NR -35.7569 56.5367 main 1498 1481 _____P________ -1 -35.7569 56.5367 99 3 4
1872032S12085 1872 3 SI MM NOT_NAMED 1872-02-14 03:00:00 NR -35.5924 56.5281 main 1481 1464 _____P________ -1 -35.5924 56.5281 99 4 355
1872032S12085 1872 3 SI MM NOT_NAMED 1872-02-14 06:00:00 NR -35.4000 56.5000 reunion main 1464 _____O________ -1 -35.4000 56.5000 99 9.90000 4 353

IBTrACS Databaseについて

本データベースは、米国NOAAが公開する1842年以降の世界の熱帯低気圧のベストトラックデータアーカイブInternational Best Track Archive for Climate Stewardship (IBTrACS)を、ウェブで閲覧しやすい形式に変換したものです。

最終更新日:2021-12-06